sensor_id;sensor_type;location;lat;lon;timestamp;P1;durP1;ratioP1;P2;durP2;ratioP2
60973;SDS011;46846;51.528;5.076;2023-02-11T00:02:14;65.30;;;60.73;;
60973;SDS011;46846;51.528;5.076;2023-02-11T00:04:39;63.13;;;58.90;;
60973;SDS011;46846;51.528;5.076;2023-02-11T00:07:05;70.17;;;65.67;;
60973;SDS011;46846;51.528;5.076;2023-02-11T00:09:30;62.87;;;58.87;;
60973;SDS011;46846;51.528;5.076;2023-02-11T00:11:56;62.53;;;58.73;;
60973;SDS011;46846;51.528;5.076;2023-02-11T00:14:21;63.67;;;59.40;;
60973;SDS011;46846;51.528;5.076;2023-02-11T00:16:46;63.97;;;59.75;;
60973;SDS011;46846;51.528;5.076;2023-02-11T00:19:12;62.93;;;58.40;;
60973;SDS011;46846;51.528;5.076;2023-02-11T00:21:37;65.17;;;60.97;;
60973;SDS011;46846;51.528;5.076;2023-02-11T00:24:04;68.22;;;62.88;;
60973;SDS011;46846;51.528;5.076;2023-02-11T00:26:31;60.72;;;56.72;;
60973;SDS011;46846;51.528;5.076;2023-02-11T00:29:00;65.18;;;60.60;;
60973;SDS011;46846;51.528;5.076;2023-02-11T00:31:26;61.22;;;57.35;;
60973;SDS011;46846;51.528;5.076;2023-02-11T00:33:51;64.50;;;60.60;;
60973;SDS011;46846;51.528;5.076;2023-02-11T00:36:19;67.57;;;62.97;;
60973;SDS011;46846;51.528;5.076;2023-02-11T00:38:47;69.78;;;65.47;;
60973;SDS011;46846;51.528;5.076;2023-02-11T00:41:14;63.92;;;59.25;;
60973;SDS011;46846;51.528;5.076;2023-02-11T00:43:40;62.80;;;58.58;;
60973;SDS011;46846;51.528;5.076;2023-02-11T00:46:06;68.85;;;64.15;;
60973;SDS011;46846;51.528;5.076;2023-02-11T00:48:32;62.50;;;57.25;;
60973;SDS011;46846;51.528;5.076;2023-02-11T00:50:58;69.65;;;63.65;;
60973;SDS011;46846;51.528;5.076;2023-02-11T00:53:23;65.20;;;60.55;;
60973;SDS011;46846;51.528;5.076;2023-02-11T00:55:49;64.50;;;59.90;;
60973;SDS011;46846;51.528;5.076;2023-02-11T00:58:14;67.83;;;63.40;;
60973;SDS011;46846;51.528;5.076;2023-02-11T01:00:39;65.57;;;60.13;;
60973;SDS011;46846;51.528;5.076;2023-02-11T01:03:05;65.50;;;59.97;;
60973;SDS011;46846;51.528;5.076;2023-02-11T01:05:30;66.50;;;62.20;;
60973;SDS011;46846;51.528;5.076;2023-02-11T01:07:56;64.28;;;59.28;;
60973;SDS011;46846;51.528;5.076;2023-02-11T01:12:47;60.72;;;56.17;;
60973;SDS011;46846;51.528;5.076;2023-02-11T01:15:13;60.97;;;56.55;;
60973;SDS011;46846;51.528;5.076;2023-02-11T01:17:40;68.38;;;63.05;;
60973;SDS011;46846;51.528;5.076;2023-02-11T01:20:06;69.13;;;64.20;;
60973;SDS011;46846;51.528;5.076;2023-02-11T01:22:33;63.47;;;59.17;;
60973;SDS011;46846;51.528;5.076;2023-02-11T01:25:01;69.65;;;64.88;;
60973;SDS011;46846;51.528;5.076;2023-02-11T01:27:27;60.75;;;57.15;;
60973;SDS011;46846;51.528;5.076;2023-02-11T01:29:52;62.35;;;57.22;;
60973;SDS011;46846;51.528;5.076;2023-02-11T01:32:18;61.30;;;57.17;;
60973;SDS011;46846;51.528;5.076;2023-02-11T01:34:43;67.07;;;62.17;;
60973;SDS011;46846;51.528;5.076;2023-02-11T01:37:09;64.22;;;59.67;;
60973;SDS011;46846;51.528;5.076;2023-02-11T01:39:34;61.25;;;56.92;;
60973;SDS011;46846;51.528;5.076;2023-02-11T01:41:59;62.72;;;58.65;;
60973;SDS011;46846;51.528;5.076;2023-02-11T01:46:54;65.13;;;60.83;;
60973;SDS011;46846;51.528;5.076;2023-02-11T01:49:22;63.72;;;59.47;;
60973;SDS011;46846;51.528;5.076;2023-02-11T01:54:30;65.55;;;60.97;;
60973;SDS011;46846;51.528;5.076;2023-02-11T01:57:18;63.47;;;58.85;;
60973;SDS011;46846;51.528;5.076;2023-02-11T02:03:04;64.15;;;60.22;;
60973;SDS011;46846;51.528;5.076;2023-02-11T02:05:44;66.07;;;61.78;;
60973;SDS011;46846;51.528;5.076;2023-02-11T02:11:04;68.35;;;63.15;;
60973;SDS011;46846;51.528;5.076;2023-02-11T02:13:32;66.00;;;61.65;;
60973;SDS011;46846;51.528;5.076;2023-02-11T02:34:34;67.65;;;63.08;;
60973;SDS011;46846;51.528;5.076;2023-02-11T02:37:08;63.22;;;58.67;;
60973;SDS011;46846;51.528;5.076;2023-02-11T02:39:42;67.28;;;62.70;;
60973;SDS011;46846;51.528;5.076;2023-02-11T02:42:12;65.55;;;61.03;;
60973;SDS011;46846;51.528;5.076;2023-02-11T02:47:04;65.25;;;60.10;;
60973;SDS011;46846;51.528;5.076;2023-02-11T02:49:29;60.90;;;57.23;;
60973;SDS011;46846;51.528;5.076;2023-02-11T02:57:34;68.97;;;63.80;;
60973;SDS011;46846;51.528;5.076;2023-02-11T03:06:06;68.93;;;64.13;;
60973;SDS011;46846;51.528;5.076;2023-02-11T03:08:56;62.00;;;57.92;;
60973;SDS011;46846;51.528;5.076;2023-02-11T03:11:26;67.88;;;63.47;;
60973;SDS011;46846;51.528;5.076;2023-02-11T03:13:53;69.90;;;64.90;;
60973;SDS011;46846;51.528;5.076;2023-02-11T03:16:22;67.75;;;62.90;;
60973;SDS011;46846;51.528;5.076;2023-02-11T03:18:56;71.93;;;66.88;;
60973;SDS011;46846;51.528;5.076;2023-02-11T03:21:26;63.65;;;59.10;;
60973;SDS011;46846;51.528;5.076;2023-02-11T03:23:55;67.03;;;62.40;;
60973;SDS011;46846;51.528;5.076;2023-02-11T03:28:56;66.40;;;62.33;;
60973;SDS011;46846;51.528;5.076;2023-02-11T03:34:19;66.28;;;61.30;;
60973;SDS011;46846;51.528;5.076;2023-02-11T03:36:56;66.03;;;61.28;;
60973;SDS011;46846;51.528;5.076;2023-02-11T03:39:34;67.75;;;62.95;;
60973;SDS011;46846;51.528;5.076;2023-02-11T03:42:03;67.78;;;62.58;;
60973;SDS011;46846;51.528;5.076;2023-02-11T03:44:33;64.18;;;59.88;;
60973;SDS011;46846;51.528;5.076;2023-02-11T03:47:12;69.40;;;64.65;;
60973;SDS011;46846;51.528;5.076;2023-02-11T03:49:40;65.88;;;61.65;;
60973;SDS011;46846;51.528;5.076;2023-02-11T03:52:09;70.55;;;65.95;;
60973;SDS011;46846;51.528;5.076;2023-02-11T03:54:36;68.57;;;63.80;;
60973;SDS011;46846;51.528;5.076;2023-02-11T03:57:04;63.65;;;59.45;;
60973;SDS011;46846;51.528;5.076;2023-02-11T03:59:30;60.20;;;55.78;;
60973;SDS011;46846;51.528;5.076;2023-02-11T04:01:55;68.10;;;63.70;;
60973;SDS011;46846;51.528;5.076;2023-02-11T04:04:23;67.82;;;63.25;;
60973;SDS011;46846;51.528;5.076;2023-02-11T04:06:49;65.57;;;61.33;;
60973;SDS011;46846;51.528;5.076;2023-02-11T04:09:14;68.25;;;63.85;;
60973;SDS011;46846;51.528;5.076;2023-02-11T04:11:40;64.18;;;59.67;;
60973;SDS011;46846;51.528;5.076;2023-02-11T04:14:05;69.43;;;65.27;;
60973;SDS011;46846;51.528;5.076;2023-02-11T04:16:30;59.73;;;56.23;;
60973;SDS011;46846;51.528;5.076;2023-02-11T04:18:59;60.88;;;56.53;;
60973;SDS011;46846;51.528;5.076;2023-02-11T04:21:25;64.95;;;60.55;;
60973;SDS011;46846;51.528;5.076;2023-02-11T04:23:51;61.25;;;57.22;;
60973;SDS011;46846;51.528;5.076;2023-02-11T04:26:19;67.70;;;62.75;;
60973;SDS011;46846;51.528;5.076;2023-02-11T04:28:44;61.90;;;58.20;;
60973;SDS011;46846;51.528;5.076;2023-02-11T04:31:09;67.10;;;63.10;;
60973;SDS011;46846;51.528;5.076;2023-02-11T04:33:36;66.28;;;62.05;;
60973;SDS011;46846;51.528;5.076;2023-02-11T04:36:01;64.93;;;60.83;;
60973;SDS011;46846;51.528;5.076;2023-02-11T04:38:26;65.03;;;60.88;;
60973;SDS011;46846;51.528;5.076;2023-02-11T04:40:52;64.20;;;59.17;;
60973;SDS011;46846;51.528;5.076;2023-02-11T04:43:17;68.18;;;63.72;;
60973;SDS011;46846;51.528;5.076;2023-02-11T04:45:42;57.60;;;54.15;;
60973;SDS011;46846;51.528;5.076;2023-02-11T04:48:08;66.13;;;61.97;;
60973;SDS011;46846;51.528;5.076;2023-02-11T04:50:33;65.10;;;61.03;;
60973;SDS011;46846;51.528;5.076;2023-02-11T04:52:59;64.30;;;59.70;;
60973;SDS011;46846;51.528;5.076;2023-02-11T04:55:24;65.43;;;60.83;;
60973;SDS011;46846;51.528;5.076;2023-02-11T04:57:49;66.77;;;62.23;;
60973;SDS011;46846;51.528;5.076;2023-02-11T05:00:15;63.35;;;59.47;;
60973;SDS011;46846;51.528;5.076;2023-02-11T05:02:41;66.38;;;62.42;;
60973;SDS011;46846;51.528;5.076;2023-02-11T05:05:06;64.68;;;60.22;;
60973;SDS011;46846;51.528;5.076;2023-02-11T05:07:32;62.80;;;58.88;;
60973;SDS011;46846;51.528;5.076;2023-02-11T05:09:57;68.85;;;64.20;;
60973;SDS011;46846;51.528;5.076;2023-02-11T05:12:23;62.77;;;58.90;;
60973;SDS011;46846;51.528;5.076;2023-02-11T05:14:48;64.50;;;60.23;;
60973;SDS011;46846;51.528;5.076;2023-02-11T05:17:13;65.73;;;61.70;;
60973;SDS011;46846;51.528;5.076;2023-02-11T05:19:40;70.55;;;65.72;;
60973;SDS011;46846;51.528;5.076;2023-02-11T05:22:06;61.58;;;57.80;;
60973;SDS011;46846;51.528;5.076;2023-02-11T05:24:31;61.17;;;57.57;;
60973;SDS011;46846;51.528;5.076;2023-02-11T05:26:57;64.28;;;60.38;;
60973;SDS011;46846;51.528;5.076;2023-02-11T05:29:22;70.70;;;66.03;;
60973;SDS011;46846;51.528;5.076;2023-02-11T05:31:48;65.73;;;61.03;;
60973;SDS011;46846;51.528;5.076;2023-02-11T05:34:13;66.45;;;61.78;;
60973;SDS011;46846;51.528;5.076;2023-02-11T05:36:38;70.18;;;65.22;;
60973;SDS011;46846;51.528;5.076;2023-02-11T05:39:04;65.55;;;59.95;;
60973;SDS011;46846;51.528;5.076;2023-02-11T05:41:29;69.22;;;64.88;;
60973;SDS011;46846;51.528;5.076;2023-02-11T05:43:54;61.13;;;57.37;;
60973;SDS011;46846;51.528;5.076;2023-02-11T05:46:20;63.03;;;58.90;;
60973;SDS011;46846;51.528;5.076;2023-02-11T05:48:45;63.47;;;59.45;;
60973;SDS011;46846;51.528;5.076;2023-02-11T05:51:10;64.83;;;60.80;;
60973;SDS011;46846;51.528;5.076;2023-02-11T05:53:36;68.22;;;63.53;;
60973;SDS011;46846;51.528;5.076;2023-02-11T05:56:04;63.50;;;59.33;;
60973;SDS011;46846;51.528;5.076;2023-02-11T05:58:31;68.10;;;63.38;;
60973;SDS011;46846;51.528;5.076;2023-02-11T06:00:56;66.28;;;61.75;;
60973;SDS011;46846;51.528;5.076;2023-02-11T06:03:22;70.43;;;65.55;;
60973;SDS011;46846;51.528;5.076;2023-02-11T06:05:47;69.88;;;64.85;;
60973;SDS011;46846;51.528;5.076;2023-02-11T06:08:13;70.70;;;64.80;;
60973;SDS011;46846;51.528;5.076;2023-02-11T06:10:38;62.05;;;57.70;;
60973;SDS011;46846;51.528;5.076;2023-02-11T06:13:06;65.55;;;61.20;;
60973;SDS011;46846;51.528;5.076;2023-02-11T06:15:31;62.23;;;58.47;;
60973;SDS011;46846;51.528;5.076;2023-02-11T06:17:57;64.70;;;60.45;;
60973;SDS011;46846;51.528;5.076;2023-02-11T06:20:22;67.15;;;62.35;;
60973;SDS011;46846;51.528;5.076;2023-02-11T06:22:48;58.00;;;53.65;;
60973;SDS011;46846;51.528;5.076;2023-02-11T06:25:13;69.22;;;64.05;;
60973;SDS011;46846;51.528;5.076;2023-02-11T06:27:39;67.78;;;63.08;;
60973;SDS011;46846;51.528;5.076;2023-02-11T06:30:04;65.65;;;60.78;;
60973;SDS011;46846;51.528;5.076;2023-02-11T06:32:31;68.32;;;63.92;;
60973;SDS011;46846;51.528;5.076;2023-02-11T06:34:56;69.45;;;64.55;;
60973;SDS011;46846;51.528;5.076;2023-02-11T06:37:22;59.20;;;55.00;;
60973;SDS011;46846;51.528;5.076;2023-02-11T06:39:47;66.43;;;60.90;;
60973;SDS011;46846;51.528;5.076;2023-02-11T06:42:13;72.78;;;66.50;;
60973;SDS011;46846;51.528;5.076;2023-02-11T06:44:38;62.58;;;58.58;;
60973;SDS011;46846;51.528;5.076;2023-02-11T06:47:04;69.60;;;65.05;;
60973;SDS011;46846;51.528;5.076;2023-02-11T06:49:29;67.65;;;62.47;;
60973;SDS011;46846;51.528;5.076;2023-02-11T06:51:55;70.88;;;66.28;;
60973;SDS011;46846;51.528;5.076;2023-02-11T06:54:20;68.95;;;62.63;;
60973;SDS011;46846;51.528;5.076;2023-02-11T06:56:46;68.78;;;62.53;;
60973;SDS011;46846;51.528;5.076;2023-02-11T06:59:15;70.72;;;65.50;;
60973;SDS011;46846;51.528;5.076;2023-02-11T07:01:41;69.07;;;64.05;;
60973;SDS011;46846;51.528;5.076;2023-02-11T07:04:07;62.37;;;58.17;;
60973;SDS011;46846;51.528;5.076;2023-02-11T07:06:32;69.53;;;64.85;;
60973;SDS011;46846;51.528;5.076;2023-02-11T07:08:58;77.50;;;63.38;;
60973;SDS011;46846;51.528;5.076;2023-02-11T07:11:25;70.45;;;64.68;;
60973;SDS011;46846;51.528;5.076;2023-02-11T07:13:53;70.57;;;65.13;;
60973;SDS011;46846;51.528;5.076;2023-02-11T07:16:20;71.68;;;66.50;;
60973;SDS011;46846;51.528;5.076;2023-02-11T07:18:47;65.90;;;61.47;;
60973;SDS011;46846;51.528;5.076;2023-02-11T07:21:13;70.97;;;65.93;;
60973;SDS011;46846;51.528;5.076;2023-02-11T07:23:40;76.07;;;69.65;;
60973;SDS011;46846;51.528;5.076;2023-02-11T07:26:07;74.35;;;68.75;;
60973;SDS011;46846;51.528;5.076;2023-02-11T07:28:37;73.85;;;68.75;;
60973;SDS011;46846;51.528;5.076;2023-02-11T07:33:32;78.30;;;72.70;;
60973;SDS011;46846;51.528;5.076;2023-02-11T07:35:59;70.47;;;65.00;;
60973;SDS011;46846;51.528;5.076;2023-02-11T07:38:25;73.20;;;67.53;;
60973;SDS011;46846;51.528;5.076;2023-02-11T07:40:51;74.93;;;68.45;;
60973;SDS011;46846;51.528;5.076;2023-02-11T07:43:16;71.90;;;67.20;;
60973;SDS011;46846;51.528;5.076;2023-02-11T07:45:41;71.70;;;66.05;;
60973;SDS011;46846;51.528;5.076;2023-02-11T07:48:07;77.43;;;70.90;;
60973;SDS011;46846;51.528;5.076;2023-02-11T07:50:32;69.10;;;64.00;;
60973;SDS011;46846;51.528;5.076;2023-02-11T07:52:58;75.78;;;68.00;;
60973;SDS011;46846;51.528;5.076;2023-02-11T07:55:23;76.37;;;70.17;;
60973;SDS011;46846;51.528;5.076;2023-02-11T07:57:48;79.47;;;72.90;;
60973;SDS011;46846;51.528;5.076;2023-02-11T08:00:14;72.22;;;66.07;;
60973;SDS011;46846;51.528;5.076;2023-02-11T08:02:41;69.97;;;65.13;;
60973;SDS011;46846;51.528;5.076;2023-02-11T08:05:06;71.90;;;66.65;;
60973;SDS011;46846;51.528;5.076;2023-02-11T08:07:32;73.95;;;67.55;;
60973;SDS011;46846;51.528;5.076;2023-02-11T08:09:57;70.55;;;63.92;;
60973;SDS011;46846;51.528;5.076;2023-02-11T08:12:23;71.13;;;65.23;;
60973;SDS011;46846;51.528;5.076;2023-02-11T08:14:48;73.27;;;67.57;;
60973;SDS011;46846;51.528;5.076;2023-02-11T08:17:13;76.33;;;69.93;;
60973;SDS011;46846;51.528;5.076;2023-02-11T08:19:39;69.93;;;64.95;;
60973;SDS011;46846;51.528;5.076;2023-02-11T08:22:04;73.65;;;68.25;;
60973;SDS011;46846;51.528;5.076;2023-02-11T08:24:30;81.35;;;74.50;;
60973;SDS011;46846;51.528;5.076;2023-02-11T08:26:55;85.72;;;77.60;;
60973;SDS011;46846;51.528;5.076;2023-02-11T08:29:21;76.63;;;70.53;;
60973;SDS011;46846;51.528;5.076;2023-02-11T08:31:46;83.40;;;74.22;;
60973;SDS011;46846;51.528;5.076;2023-02-11T08:34:12;76.85;;;70.90;;
60973;SDS011;46846;51.528;5.076;2023-02-11T08:36:42;78.55;;;72.38;;
60973;SDS011;46846;51.528;5.076;2023-02-11T08:39:12;70.15;;;64.82;;
60973;SDS011;46846;51.528;5.076;2023-02-11T08:41:42;84.00;;;76.55;;
60973;SDS011;46846;51.528;5.076;2023-02-11T08:46:33;78.03;;;71.53;;
60973;SDS011;46846;51.528;5.076;2023-02-11T08:48:59;78.50;;;71.95;;
60973;SDS011;46846;51.528;5.076;2023-02-11T08:51:25;77.90;;;70.60;;
60973;SDS011;46846;51.528;5.076;2023-02-11T08:53:53;74.32;;;68.38;;
60973;SDS011;46846;51.528;5.076;2023-02-11T08:56:19;74.03;;;68.13;;
60973;SDS011;46846;51.528;5.076;2023-02-11T08:58:45;86.10;;;78.22;;
60973;SDS011;46846;51.528;5.076;2023-02-11T09:01:24;84.43;;;77.00;;
60973;SDS011;46846;51.528;5.076;2023-02-11T09:03:51;79.45;;;73.07;;
60973;SDS011;46846;51.528;5.076;2023-02-11T09:06:17;80.50;;;73.35;;
60973;SDS011;46846;51.528;5.076;2023-02-11T09:08:46;78.60;;;72.57;;
60973;SDS011;46846;51.528;5.076;2023-02-11T09:11:13;82.15;;;74.57;;
60973;SDS011;46846;51.528;5.076;2023-02-11T09:13:39;79.35;;;72.35;;
60973;SDS011;46846;51.528;5.076;2023-02-11T09:16:06;74.47;;;69.43;;
60973;SDS011;46846;51.528;5.076;2023-02-11T09:18:32;74.07;;;68.32;;
60973;SDS011;46846;51.528;5.076;2023-02-11T09:21:01;83.82;;;75.57;;
60973;SDS011;46846;51.528;5.076;2023-02-11T09:23:31;84.43;;;75.93;;
60973;SDS011;46846;51.528;5.076;2023-02-11T09:25:58;79.35;;;70.97;;
60973;SDS011;46846;51.528;5.076;2023-02-11T09:28:34;84.68;;;75.43;;
60973;SDS011;46846;51.528;5.076;2023-02-11T09:31:07;73.45;;;67.40;;
60973;SDS011;46846;51.528;5.076;2023-02-11T09:33:34;82.15;;;75.82;;
60973;SDS011;46846;51.528;5.076;2023-02-11T09:36:00;76.20;;;68.95;;
60973;SDS011;46846;51.528;5.076;2023-02-11T09:38:27;80.60;;;73.38;;
60973;SDS011;46846;51.528;5.076;2023-02-11T09:40:53;76.45;;;70.45;;
60973;SDS011;46846;51.528;5.076;2023-02-11T09:43:19;80.80;;;72.68;;
60973;SDS011;46846;51.528;5.076;2023-02-11T09:45:46;79.70;;;73.50;;
60973;SDS011;46846;51.528;5.076;2023-02-11T09:48:14;87.00;;;79.55;;
60973;SDS011;46846;51.528;5.076;2023-02-11T09:51:02;87.97;;;80.32;;
60973;SDS011;46846;51.528;5.076;2023-02-11T09:53:30;85.90;;;78.32;;
60973;SDS011;46846;51.528;5.076;2023-02-11T09:56:10;83.63;;;77.00;;
60973;SDS011;46846;51.528;5.076;2023-02-11T09:58:41;89.50;;;81.45;;
60973;SDS011;46846;51.528;5.076;2023-02-11T10:04:00;80.43;;;74.13;;
60973;SDS011;46846;51.528;5.076;2023-02-11T10:15:18;75.10;;;69.55;;
60973;SDS011;46846;51.528;5.076;2023-02-11T10:18:01;82.10;;;75.13;;
60973;SDS011;46846;51.528;5.076;2023-02-11T10:20:35;73.05;;;67.68;;
60973;SDS011;46846;51.528;5.076;2023-02-11T10:23:22;80.97;;;75.03;;
60973;SDS011;46846;51.528;5.076;2023-02-11T10:25:51;81.10;;;74.97;;
60973;SDS011;46846;51.528;5.076;2023-02-11T10:28:29;84.55;;;77.63;;
60973;SDS011;46846;51.528;5.076;2023-02-11T10:31:00;80.13;;;72.70;;
60973;SDS011;46846;51.528;5.076;2023-02-11T10:33:42;80.75;;;74.75;;
60973;SDS011;46846;51.528;5.076;2023-02-11T10:36:12;85.45;;;78.85;;
60973;SDS011;46846;51.528;5.076;2023-02-11T10:38:41;85.78;;;78.55;;
60973;SDS011;46846;51.528;5.076;2023-02-11T10:41:16;87.35;;;80.78;;
60973;SDS011;46846;51.528;5.076;2023-02-11T10:43:45;85.90;;;78.45;;
60973;SDS011;46846;51.528;5.076;2023-02-11T10:46:17;92.40;;;84.73;;
60973;SDS011;46846;51.528;5.076;2023-02-11T10:48:51;88.43;;;80.50;;
60973;SDS011;46846;51.528;5.076;2023-02-11T10:51:19;88.22;;;79.50;;
60973;SDS011;46846;51.528;5.076;2023-02-11T10:53:47;84.28;;;76.85;;
60973;SDS011;46846;51.528;5.076;2023-02-11T10:56:49;79.88;;;73.20;;
60973;SDS011;46846;51.528;5.076;2023-02-11T11:02:04;80.95;;;73.20;;
60973;SDS011;46846;51.528;5.076;2023-02-11T11:04:45;84.80;;;77.18;;
60973;SDS011;46846;51.528;5.076;2023-02-11T11:07:30;84.60;;;77.03;;
60973;SDS011;46846;51.528;5.076;2023-02-11T11:10:05;82.75;;;75.57;;
60973;SDS011;46846;51.528;5.076;2023-02-11T11:12:36;88.82;;;81.18;;
60973;SDS011;46846;51.528;5.076;2023-02-11T11:17:42;84.03;;;76.45;;
60973;SDS011;46846;51.528;5.076;2023-02-11T11:20:19;88.70;;;81.57;;
60973;SDS011;46846;51.528;5.076;2023-02-11T11:25:32;89.20;;;81.18;;
60973;SDS011;46846;51.528;5.076;2023-02-11T11:28:02;87.60;;;80.22;;
60973;SDS011;46846;51.528;5.076;2023-02-11T11:30:32;90.70;;;82.50;;
60973;SDS011;46846;51.528;5.076;2023-02-11T11:33:03;88.68;;;81.82;;
60973;SDS011;46846;51.528;5.076;2023-02-11T11:35:29;86.53;;;79.32;;
60973;SDS011;46846;51.528;5.076;2023-02-11T11:37:59;91.03;;;83.43;;
60973;SDS011;46846;51.528;5.076;2023-02-11T11:40:31;89.30;;;82.30;;
60973;SDS011;46846;51.528;5.076;2023-02-11T11:45:38;84.65;;;77.22;;
60973;SDS011;46846;51.528;5.076;2023-02-11T11:51:10;83.25;;;75.47;;
60973;SDS011;46846;51.528;5.076;2023-02-11T11:56:25;77.82;;;71.78;;
60973;SDS011;46846;51.528;5.076;2023-02-11T11:58:54;94.43;;;86.70;;
60973;SDS011;46846;51.528;5.076;2023-02-11T12:06:29;92.40;;;85.38;;
60973;SDS011;46846;51.528;5.076;2023-02-11T12:09:03;89.90;;;81.90;;
60973;SDS011;46846;51.528;5.076;2023-02-11T12:17:10;89.45;;;81.72;;
60973;SDS011;46846;51.528;5.076;2023-02-11T12:22:44;88.55;;;81.40;;
60973;SDS011;46846;51.528;5.076;2023-02-11T12:27:52;92.82;;;84.30;;
60973;SDS011;46846;51.528;5.076;2023-02-11T12:33:07;91.57;;;83.53;;
60973;SDS011;46846;51.528;5.076;2023-02-11T12:35:52;90.00;;;82.80;;
60973;SDS011;46846;51.528;5.076;2023-02-11T12:44:08;89.35;;;81.40;;
60973;SDS011;46846;51.528;5.076;2023-02-11T12:54:27;80.18;;;74.18;;
60973;SDS011;46846;51.528;5.076;2023-02-11T13:05:28;91.50;;;83.10;;
60973;SDS011;46846;51.528;5.076;2023-02-11T13:08:11;87.90;;;81.35;;
60973;SDS011;46846;51.528;5.076;2023-02-11T13:10:39;93.10;;;85.65;;
60973;SDS011;46846;51.528;5.076;2023-02-11T13:13:15;92.60;;;84.15;;
60973;SDS011;46846;51.528;5.076;2023-02-11T13:16:03;91.45;;;82.75;;
60973;SDS011;46846;51.528;5.076;2023-02-11T13:21:18;86.43;;;79.65;;
60973;SDS011;46846;51.528;5.076;2023-02-11T13:24:12;89.07;;;81.00;;
60973;SDS011;46846;51.528;5.076;2023-02-11T13:26:57;86.57;;;79.65;;
60973;SDS011;46846;51.528;5.076;2023-02-11T13:32:12;93.75;;;86.63;;
60973;SDS011;46846;51.528;5.076;2023-02-11T13:37:52;96.90;;;89.57;;
60973;SDS011;46846;51.528;5.076;2023-02-11T13:40:03;96.03;;;88.13;;
60973;SDS011;46846;51.528;5.076;2023-02-11T13:42:31;94.13;;;87.00;;
60973;SDS011;46846;51.528;5.076;2023-02-11T13:45:16;87.00;;;80.13;;
60973;SDS011;46846;51.528;5.076;2023-02-11T13:48:05;93.80;;;84.85;;
60973;SDS011;46846;51.528;5.076;2023-02-11T13:50:39;94.50;;;87.68;;
60973;SDS011;46846;51.528;5.076;2023-02-11T13:53:12;94.20;;;87.03;;
60973;SDS011;46846;51.528;5.076;2023-02-11T13:55:38;90.47;;;83.13;;
60973;SDS011;46846;51.528;5.076;2023-02-11T14:11:45;84.72;;;78.70;;
60973;SDS011;46846;51.528;5.076;2023-02-11T14:19:35;93.20;;;86.03;;
60973;SDS011;46846;51.528;5.076;2023-02-11T14:24:47;90.90;;;84.05;;
60973;SDS011;46846;51.528;5.076;2023-02-11T14:27:14;96.90;;;89.63;;
60973;SDS011;46846;51.528;5.076;2023-02-11T14:30:01;100.40;;;91.15;;
60973;SDS011;46846;51.528;5.076;2023-02-11T14:41:20;91.18;;;83.40;;
60973;SDS011;46846;51.528;5.076;2023-02-11T14:43:50;96.18;;;88.50;;
60973;SDS011;46846;51.528;5.076;2023-02-11T14:46:18;88.35;;;81.82;;
60973;SDS011;46846;51.528;5.076;2023-02-11T14:48:49;97.35;;;89.57;;
60973;SDS011;46846;51.528;5.076;2023-02-11T14:51:18;91.68;;;84.88;;
60973;SDS011;46846;51.528;5.076;2023-02-11T14:53:49;98.65;;;90.68;;
60973;SDS011;46846;51.528;5.076;2023-02-11T14:58:46;96.07;;;88.57;;
60973;SDS011;46846;51.528;5.076;2023-02-11T15:03:48;97.20;;;89.28;;
60973;SDS011;46846;51.528;5.076;2023-02-11T15:06:18;101.72;;;94.68;;
60973;SDS011;46846;51.528;5.076;2023-02-11T15:08:50;92.70;;;86.10;;
60973;SDS011;46846;51.528;5.076;2023-02-11T15:11:19;98.00;;;90.53;;
60973;SDS011;46846;51.528;5.076;2023-02-11T15:13:46;101.30;;;93.60;;
60973;SDS011;46846;51.528;5.076;2023-02-11T15:16:15;97.10;;;89.47;;
60973;SDS011;46846;51.528;5.076;2023-02-11T15:18:45;91.18;;;84.38;;
60973;SDS011;46846;51.528;5.076;2023-02-11T15:21:19;96.38;;;89.47;;
60973;SDS011;46846;51.528;5.076;2023-02-11T15:23:56;92.00;;;85.10;;
60973;SDS011;46846;51.528;5.076;2023-02-11T15:26:30;96.50;;;88.60;;
60973;SDS011;46846;51.528;5.076;2023-02-11T15:28:57;92.95;;;86.50;;
60973;SDS011;46846;51.528;5.076;2023-02-11T15:31:24;90.43;;;83.65;;
60973;SDS011;46846;51.528;5.076;2023-02-11T15:33:51;94.93;;;88.45;;
60973;SDS011;46846;51.528;5.076;2023-02-11T15:36:18;95.50;;;88.47;;
60973;SDS011;46846;51.528;5.076;2023-02-11T15:41:56;92.53;;;85.70;;
60973;SDS011;46846;51.528;5.076;2023-02-11T15:44:31;89.80;;;82.53;;
60973;SDS011;46846;51.528;5.076;2023-02-11T15:46:56;90.25;;;84.22;;
60973;SDS011;46846;51.528;5.076;2023-02-11T15:49:23;87.25;;;80.88;;
60973;SDS011;46846;51.528;5.076;2023-02-11T15:51:50;98.93;;;91.63;;
60973;SDS011;46846;51.528;5.076;2023-02-11T15:54:21;93.35;;;86.43;;
60973;SDS011;46846;51.528;5.076;2023-02-11T15:56:51;95.03;;;88.28;;
60973;SDS011;46846;51.528;5.076;2023-02-11T15:59:29;98.10;;;91.10;;
60973;SDS011;46846;51.528;5.076;2023-02-11T16:02:15;94.15;;;87.07;;
60973;SDS011;46846;51.528;5.076;2023-02-11T16:04:52;94.55;;;88.05;;
60973;SDS011;46846;51.528;5.076;2023-02-11T16:07:37;101.32;;;94.05;;
60973;SDS011;46846;51.528;5.076;2023-02-11T16:10:24;95.03;;;88.68;;
60973;SDS011;46846;51.528;5.076;2023-02-11T16:12:53;97.63;;;91.53;;
60973;SDS011;46846;51.528;5.076;2023-02-11T16:15:47;93.55;;;86.72;;
60973;SDS011;46846;51.528;5.076;2023-02-11T16:18:34;99.50;;;92.35;;
60973;SDS011;46846;51.528;5.076;2023-02-11T16:21:00;99.40;;;92.13;;
60973;SDS011;46846;51.528;5.076;2023-02-11T16:23:28;95.32;;;88.63;;
60973;SDS011;46846;51.528;5.076;2023-02-11T16:26:00;96.30;;;87.88;;
60973;SDS011;46846;51.528;5.076;2023-02-11T16:28:31;99.93;;;91.63;;
60973;SDS011;46846;51.528;5.076;2023-02-11T16:30:57;91.82;;;85.15;;
60973;SDS011;46846;51.528;5.076;2023-02-11T16:33:23;101.95;;;94.13;;
60973;SDS011;46846;51.528;5.076;2023-02-11T16:35:49;100.18;;;92.80;;
60973;SDS011;46846;51.528;5.076;2023-02-11T16:38:15;96.60;;;89.70;;
60973;SDS011;46846;51.528;5.076;2023-02-11T16:40:41;94.72;;;87.80;;
60973;SDS011;46846;51.528;5.076;2023-02-11T16:43:08;99.22;;;91.40;;
60973;SDS011;46846;51.528;5.076;2023-02-11T16:45:37;102.20;;;94.63;;
60973;SDS011;46846;51.528;5.076;2023-02-11T16:48:07;104.15;;;94.97;;
60973;SDS011;46846;51.528;5.076;2023-02-11T16:50:34;102.78;;;95.47;;
60973;SDS011;46846;51.528;5.076;2023-02-11T16:53:00;104.65;;;96.30;;
60973;SDS011;46846;51.528;5.076;2023-02-11T16:55:30;100.38;;;92.80;;
60973;SDS011;46846;51.528;5.076;2023-02-11T16:57:56;96.93;;;89.53;;
60973;SDS011;46846;51.528;5.076;2023-02-11T17:00:21;106.70;;;98.87;;
60973;SDS011;46846;51.528;5.076;2023-02-11T17:02:47;90.45;;;83.97;;
60973;SDS011;46846;51.528;5.076;2023-02-11T17:05:17;110.95;;;101.97;;
60973;SDS011;46846;51.528;5.076;2023-02-11T17:07:44;103.78;;;96.25;;
60973;SDS011;46846;51.528;5.076;2023-02-11T17:12:39;93.95;;;87.25;;
60973;SDS011;46846;51.528;5.076;2023-02-11T17:15:05;100.80;;;93.10;;
60973;SDS011;46846;51.528;5.076;2023-02-11T17:17:30;95.32;;;88.35;;
60973;SDS011;46846;51.528;5.076;2023-02-11T17:19:56;98.38;;;91.57;;
60973;SDS011;46846;51.528;5.076;2023-02-11T17:22:21;99.32;;;91.65;;
60973;SDS011;46846;51.528;5.076;2023-02-11T17:24:47;99.20;;;92.30;;
60973;SDS011;46846;51.528;5.076;2023-02-11T17:27:12;100.68;;;93.18;;